Time;durP1;ratioP1;P1;durP2;ratioP2;P2;SDS_P1;SDS_P2;PMS_P1;PMS_P2;Temp;Humidity;BMP_temperature;BMP_pressure;BME280_temperature;BME280_humidity;BME280_pressure;Samples;Min_cycle;Max_cycle;Signal;HPM_P1;HPM_P2
2021/12/22 00:00:33;;;;;;;31.02;16.77;;;;;;;;;;5074074;28;20041;-39
2021/12/22 00:02:59;;;;;;;29.38;17.00;;;;;;;;;;5072122;28;20105;-39
2021/12/22 00:05:27;;;;;;;25.35;16.02;;;;;;;;;;5064049;28;20028;-39
2021/12/22 00:07:54;;;;;;;25.45;16.17;;;;;;;;;;5076265;28;20040;-40
2021/12/22 00:10:21;;;;;;;26.40;15.60;;;;;;;;;;5064676;28;20064;-40
2021/12/22 00:12:47;;;;;;;29.17;16.15;;;;;;;;;;5070787;28;20042;-39
2021/12/22 00:15:14;;;;;;;25.45;15.40;;;;;;;;;;5071495;28;20036;-40
2021/12/22 00:17:40;;;;;;;23.83;15.38;;;;;;;;;;5074081;28;20032;-40
2021/12/22 00:20:08;;;;;;;28.98;16.35;;;;;;;;;;5075332;28;20044;-39
2021/12/22 00:22:36;;;;;;;34.95;19.23;;;;;;;;;;5063381;28;20045;-40
2021/12/22 00:25:04;;;;;;;30.70;16.27;;;;;;;;;;5073669;28;20098;-39
2021/12/22 00:27:30;;;;;;;25.23;15.93;;;;;;;;;;5061530;28;20032;-39
2021/12/22 00:29:56;;;;;;;25.85;17.63;;;;;;;;;;5067735;28;20036;-39
2021/12/22 00:32:27;;;;;;;25.77;15.30;;;;;;;;;;5080846;28;20089;-39
2021/12/22 00:34:55;;;;;;;25.33;15.43;;;;;;;;;;5067005;28;20123;-39
2021/12/22 00:37:28;;;;;;;29.67;15.70;;;;;;;;;;5075443;28;20033;-39
2021/12/22 00:39:54;;;;;;;28.17;17.00;;;;;;;;;;5073249;28;20104;-39
2021/12/22 00:42:21;;;;;;;28.73;15.38;;;;;;;;;;5058628;28;20028;-39
2021/12/22 00:44:50;;;;;;;30.45;16.35;;;;;;;;;;5070598;28;20404;-39
2021/12/22 00:47:21;;;;;;;27.55;15.20;;;;;;;;;;5069073;28;20040;-39
2021/12/22 00:49:47;;;;;;;25.63;15.38;;;;;;;;;;5086469;28;20086;-40
2021/12/22 00:52:13;;;;;;;23.83;15.70;;;;;;;;;;5081185;28;20032;-39
2021/12/22 00:54:42;;;;;;;29.88;17.15;;;;;;;;;;5069134;28;20043;-40
2021/12/22 00:57:10;;;;;;;27.98;17.35;;;;;;;;;;5085815;28;20562;-39
2021/12/22 00:59:36;;;;;;;26.30;15.80;;;;;;;;;;5086900;28;20106;-39
2021/12/22 01:02:04;;;;;;;31.05;18.67;;;;;;;;;;5069546;28;20041;-40
2021/12/22 01:04:30;;;;;;;27.10;16.98;;;;;;;;;;5082949;28;20040;-39
2021/12/22 01:06:56;;;;;;;27.42;15.88;;;;;;;;;;5084922;28;20040;-40
2021/12/22 01:09:22;;;;;;;31.63;17.30;;;;;;;;;;5085081;28;20118;-42
2021/12/22 01:11:49;;;;;;;29.75;17.27;;;;;;;;;;5063712;28;20060;-40
2021/12/22 01:14:15;;;;;;;33.78;16.42;;;;;;;;;;5086343;28;20036;-41
2021/12/22 01:16:47;;;;;;;24.65;15.50;;;;;;;;;;5078711;28;20050;-41
2021/12/22 01:19:16;;;;;;;27.63;16.65;;;;;;;;;;5066137;28;20515;-40
2021/12/22 01:21:48;;;;;;;25.38;14.90;;;;;;;;;;5076175;28;20124;-41
2021/12/22 01:24:21;;;;;;;25.63;14.80;;;;;;;;;;5083486;28;20094;-41
2021/12/22 01:26:57;;;;;;;28.88;16.95;;;;;;;;;;5079065;28;20050;-41
2021/12/22 01:29:23;;;;;;;26.65;14.95;;;;;;;;;;5076102;28;20032;-40
2021/12/22 01:31:50;;;;;;;29.48;16.45;;;;;;;;;;5077056;28;20040;-40
2021/12/22 01:34:18;;;;;;;25.83;15.90;;;;;;;;;;5072044;28;20038;-39
2021/12/22 01:36:46;;;;;;;27.27;16.75;;;;;;;;;;5078407;28;20048;-40
2021/12/22 01:39:12;;;;;;;30.65;16.27;;;;;;;;;;5075563;28;20048;-40
2021/12/22 01:41:38;;;;;;;26.45;15.43;;;;;;;;;;5083490;28;20048;-40
2021/12/22 01:44:05;;;;;;;24.65;15.23;;;;;;;;;;5082686;28;20556;-40
2021/12/22 01:49:14;;;;;;;28.50;15.70;;;;;;;;;;5075892;28;20068;-41
2021/12/22 01:51:46;;;;;;;25.92;14.73;;;;;;;;;;5085467;28;20040;-40
2021/12/22 01:54:14;;;;;;;22.85;14.27;;;;;;;;;;5081978;28;20044;-41
2021/12/22 01:56:42;;;;;;;21.48;13.82;;;;;;;;;;5069558;28;20036;-42
2021/12/22 01:59:09;;;;;;;22.80;13.80;;;;;;;;;;5064548;28;20050;-41
2021/12/22 02:01:35;;;;;;;23.40;14.15;;;;;;;;;;5075113;28;20075;-42
2021/12/22 02:04:03;;;;;;;25.77;13.88;;;;;;;;;;5084892;28;20036;-42
2021/12/22 02:06:29;;;;;;;24.08;14.27;;;;;;;;;;5071695;28;20033;-40
2021/12/22 02:08:55;;;;;;;20.20;12.82;;;;;;;;;;5064870;28;20119;-43
2021/12/22 02:11:22;;;;;;;20.73;12.80;;;;;;;;;;5074025;28;20733;-42
2021/12/22 02:14:00;;;;;;;22.70;13.55;;;;;;;;;;5080874;28;20044;-41
2021/12/22 02:16:29;;;;;;;22.77;13.52;;;;;;;;;;5081070;28;20040;-41
2021/12/22 02:18:58;;;;;;;21.60;12.90;;;;;;;;;;5066030;28;20152;-42
2021/12/22 02:21:28;;;;;;;28.35;13.23;;;;;;;;;;5085024;28;20162;-44
2021/12/22 02:23:54;;;;;;;22.00;12.70;;;;;;;;;;5073078;28;20455;-40
2021/12/22 02:26:27;;;;;;;18.42;12.38;;;;;;;;;;5080630;28;20047;-41
2021/12/22 02:29:06;;;;;;;21.10;13.48;;;;;;;;;;5068628;28;20298;-40
2021/12/22 02:31:39;;;;;;;24.60;14.05;;;;;;;;;;5075777;28;20049;-40
2021/12/22 02:34:06;;;;;;;26.08;14.65;;;;;;;;;;5079211;28;20040;-40
2021/12/22 02:36:38;;;;;;;29.27;14.82;;;;;;;;;;5069901;28;20040;-42
2021/12/22 02:39:05;;;;;;;26.25;14.73;;;;;;;;;;5078855;28;20041;-40
2021/12/22 02:41:32;;;;;;;26.60;15.88;;;;;;;;;;5068860;28;20036;-41
2021/12/22 02:43:59;;;;;;;25.58;15.65;;;;;;;;;;5071604;28;20141;-40
2021/12/22 02:46:28;;;;;;;30.95;16.88;;;;;;;;;;5062541;28;20047;-42
2021/12/22 02:48:54;;;;;;;28.80;16.98;;;;;;;;;;5064273;28;20047;-40
2021/12/22 02:51:21;;;;;;;26.27;14.48;;;;;;;;;;5078319;28;20044;-41
2021/12/22 02:56:40;;;;;;;24.65;13.35;;;;;;;;;;5073753;28;20040;-41
2021/12/22 02:59:19;;;;;;;29.45;14.60;;;;;;;;;;5070963;28;21168;-43
2021/12/22 03:04:29;;;;;;;28.67;15.27;;;;;;;;;;5062101;28;20481;-43
2021/12/22 03:07:02;;;;;;;33.38;16.38;;;;;;;;;;5079181;28;20045;-41
2021/12/22 03:09:29;;;;;;;27.08;15.80;;;;;;;;;;5077260;28;20115;-41
2021/12/22 03:11:56;;;;;;;25.35;16.17;;;;;;;;;;5076687;28;20044;-40
2021/12/22 03:14:22;;;;;;;27.98;16.10;;;;;;;;;;5076273;28;20071;-40
2021/12/22 03:16:49;;;;;;;21.70;14.27;;;;;;;;;;5062056;28;20048;-41
2021/12/22 03:19:17;;;;;;;31.08;16.80;;;;;;;;;;5080996;28;20067;-42
2021/12/22 03:21:43;;;;;;;28.05;16.08;;;;;;;;;;5071650;28;20047;-41
2021/12/22 03:24:12;;;;;;;26.23;16.08;;;;;;;;;;5073397;28;20489;-40
2021/12/22 03:26:42;;;;;;;26.13;16.52;;;;;;;;;;5060581;28;20093;-41
2021/12/22 03:29:09;;;;;;;23.65;14.32;;;;;;;;;;5078446;28;20040;-41
2021/12/22 03:31:37;;;;;;;27.98;15.30;;;;;;;;;;5082861;28;20053;-40
2021/12/22 03:34:04;;;;;;;27.77;15.55;;;;;;;;;;5065204;28;20127;-41
2021/12/22 03:36:30;;;;;;;22.23;15.50;;;;;;;;;;5075093;28;20068;-40
2021/12/22 03:38:58;;;;;;;30.80;14.98;;;;;;;;;;5081168;28;20054;-41
2021/12/22 03:41:24;;;;;;;26.27;15.40;;;;;;;;;;5074747;28;20052;-44
2021/12/22 03:43:50;;;;;;;28.30;15.13;;;;;;;;;;5077240;28;20500;-41
2021/12/22 03:46:18;;;;;;;25.15;15.77;;;;;;;;;;5063648;28;20071;-41
2021/12/22 03:48:44;;;;;;;24.58;14.63;;;;;;;;;;5081904;28;20040;-40
2021/12/22 03:51:10;;;;;;;23.45;13.88;;;;;;;;;;5081390;28;20416;-40
2021/12/22 03:53:36;;;;;;;25.38;14.23;;;;;;;;;;5078505;28;20059;-42
2021/12/22 03:56:02;;;;;;;29.08;14.98;;;;;;;;;;5073044;28;20074;-40
2021/12/22 03:58:29;;;;;;;26.55;14.68;;;;;;;;;;5081439;28;20038;-42
2021/12/22 04:00:56;;;;;;;27.55;15.77;;;;;;;;;;5063608;28;20080;-40
2021/12/22 04:03:26;;;;;;;30.00;15.45;;;;;;;;;;5065780;28;20045;-42
2021/12/22 04:05:54;;;;;;;27.95;14.73;;;;;;;;;;5061897;28;20049;-41
2021/12/22 04:08:21;;;;;;;28.17;15.35;;;;;;;;;;5064093;28;20036;-41
2021/12/22 04:10:47;;;;;;;25.48;14.68;;;;;;;;;;5075784;28;20115;-41
2021/12/22 04:13:14;;;;;;;27.98;15.65;;;;;;;;;;5062791;28;20120;-40
2021/12/22 04:15:40;;;;;;;27.70;14.05;;;;;;;;;;5068386;28;20041;-40
2021/12/22 04:18:07;;;;;;;28.65;14.70;;;;;;;;;;5061260;28;20086;-41
2021/12/22 04:20:33;;;;;;;26.23;15.38;;;;;;;;;;5073440;28;20039;-42
2021/12/22 04:23:00;;;;;;;26.27;14.98;;;;;;;;;;5071456;28;20036;-41
2021/12/22 04:25:27;;;;;;;25.45;15.30;;;;;;;;;;5065197;28;20180;-41
2021/12/22 04:27:55;;;;;;;26.02;14.95;;;;;;;;;;5061343;28;20041;-41
2021/12/22 04:30:24;;;;;;;28.73;15.00;;;;;;;;;;5067472;28;20044;-43
2021/12/22 04:32:50;;;;;;;24.35;14.38;;;;;;;;;;5069461;28;20044;-41
2021/12/22 04:35:16;;;;;;;22.13;13.57;;;;;;;;;;5073555;28;20044;-40
2021/12/22 04:37:44;;;;;;;25.42;14.48;;;;;;;;;;5075897;28;20039;-40
2021/12/22 04:40:11;;;;;;;27.92;13.65;;;;;;;;;;5065508;28;20055;-40
2021/12/22 04:42:37;;;;;;;23.63;14.93;;;;;;;;;;5070258;28;20036;-40
2021/12/22 04:45:06;;;;;;;25.70;13.95;;;;;;;;;;5079197;28;20546;-40
2021/12/22 04:47:33;;;;;;;29.70;14.25;;;;;;;;;;5071969;28;20052;-40
2021/12/22 04:50:00;;;;;;;24.83;14.38;;;;;;;;;;5079464;28;20082;-40
2021/12/22 04:52:38;;;;;;;23.92;14.05;;;;;;;;;;5074170;28;20093;-40
2021/12/22 04:55:04;;;;;;;29.17;14.57;;;;;;;;;;5074144;28;20063;-40
2021/12/22 04:57:31;;;;;;;27.67;14.00;;;;;;;;;;5081575;28;20040;-42
2021/12/22 04:59:58;;;;;;;25.75;13.73;;;;;;;;;;5062841;28;20053;-41
2021/12/22 05:02:24;;;;;;;24.90;13.38;;;;;;;;;;5062710;28;20055;-40
2021/12/22 05:04:50;;;;;;;23.88;13.90;;;;;;;;;;5076829;28;20203;-40
2021/12/22 05:07:16;;;;;;;23.00;14.10;;;;;;;;;;5062627;28;20521;-40
2021/12/22 05:09:44;;;;;;;27.45;14.13;;;;;;;;;;5066135;28;20040;-40
2021/12/22 05:12:10;;;;;;;25.15;14.75;;;;;;;;;;5064790;28;20098;-41
2021/12/22 05:14:36;;;;;;;25.95;14.10;;;;;;;;;;5071846;28;20479;-41
2021/12/22 05:17:05;;;;;;;23.13;13.77;;;;;;;;;;5063954;28;20036;-40
2021/12/22 05:19:31;;;;;;;25.65;13.93;;;;;;;;;;5065663;28;20040;-40
2021/12/22 05:21:58;;;;;;;25.00;14.50;;;;;;;;;;5064999;28;20155;-40
2021/12/22 05:24:25;;;;;;;24.42;13.95;;;;;;;;;;5081166;28;20050;-40
2021/12/22 05:26:52;;;;;;;22.42;14.32;;;;;;;;;;5066871;28;20037;-41
2021/12/22 05:29:18;;;;;;;26.58;14.35;;;;;;;;;;5073631;28;20039;-41
2021/12/22 05:31:53;;;;;;;22.55;13.48;;;;;;;;;;5079111;28;20501;-40
2021/12/22 05:34:19;;;;;;;23.02;13.65;;;;;;;;;;5072632;28;20482;-40
2021/12/22 05:36:45;;;;;;;23.27;14.52;;;;;;;;;;5078883;28;20481;-40
2021/12/22 05:39:11;;;;;;;23.77;13.13;;;;;;;;;;5083548;28;20577;-40
2021/12/22 05:41:37;;;;;;;25.60;15.15;;;;;;;;;;5079582;28;20068;-40
2021/12/22 05:44:03;;;;;;;23.10;14.07;;;;;;;;;;5066296;28;20037;-41
2021/12/22 05:46:29;;;;;;;24.30;13.93;;;;;;;;;;5063968;28;20075;-39
2021/12/22 05:48:55;;;;;;;26.15;15.05;;;;;;;;;;5070382;28;20047;-40
2021/12/22 05:51:22;;;;;;;25.23;14.98;;;;;;;;;;5065475;28;20049;-40
2021/12/22 05:53:49;;;;;;;25.15;14.40;;;;;;;;;;5074133;28;20048;-40
2021/12/22 05:56:15;;;;;;;26.15;13.88;;;;;;;;;;5076032;28;20042;-40
2021/12/22 05:58:41;;;;;;;26.98;14.10;;;;;;;;;;5084445;28;20044;-40
2021/12/22 06:01:07;;;;;;;21.08;13.77;;;;;;;;;;5069465;28;20177;-40
2021/12/22 06:03:33;;;;;;;26.17;14.00;;;;;;;;;;5064947;28;20116;-40
2021/12/22 06:05:59;;;;;;;25.20;13.98;;;;;;;;;;5076549;28;20127;-41
2021/12/22 06:08:25;;;;;;;25.23;13.95;;;;;;;;;;5069170;28;20636;-41
2021/12/22 06:10:51;;;;;;;23.83;13.93;;;;;;;;;;5066488;28;21090;-40
2021/12/22 06:13:17;;;;;;;25.27;14.38;;;;;;;;;;5073583;28;20041;-41
2021/12/22 06:15:45;;;;;;;26.48;15.00;;;;;;;;;;5080976;28;20049;-40
2021/12/22 06:18:11;;;;;;;20.08;13.25;;;;;;;;;;5071139;28;20123;-41
2021/12/22 06:20:37;;;;;;;25.05;15.02;;;;;;;;;;5081770;28;20094;-42
2021/12/22 06:23:06;;;;;;;22.00;13.98;;;;;;;;;;5074828;28;20054;-40
2021/12/22 06:25:32;;;;;;;24.67;14.48;;;;;;;;;;5075738;28;20040;-40
2021/12/22 06:27:58;;;;;;;23.15;14.13;;;;;;;;;;5077005;28;20063;-41
2021/12/22 06:30:25;;;;;;;23.50;13.98;;;;;;;;;;5083226;28;20109;-41
2021/12/22 06:32:52;;;;;;;26.45;13.77;;;;;;;;;;5071214;28;20373;-41
2021/12/22 06:35:18;;;;;;;24.42;14.15;;;;;;;;;;5064090;28;20535;-40
2021/12/22 06:37:45;;;;;;;26.10;14.45;;;;;;;;;;5075339;28;20142;-40
2021/12/22 06:40:12;;;;;;;28.80;14.57;;;;;;;;;;5075688;28;20250;-40
2021/12/22 06:42:38;;;;;;;23.27;13.27;;;;;;;;;;5061781;28;20059;-40
2021/12/22 06:45:05;;;;;;;27.30;14.32;;;;;;;;;;5074970;28;20036;-40
2021/12/22 06:47:31;;;;;;;26.77;13.73;;;;;;;;;;5084686;28;20442;-42
2021/12/22 06:49:57;;;;;;;27.88;14.30;;;;;;;;;;5078233;28;20044;-40
2021/12/22 06:52:23;;;;;;;26.33;14.05;;;;;;;;;;5065137;28;20524;-42
2021/12/22 06:54:50;;;;;;;20.52;12.80;;;;;;;;;;5084316;28;20052;-42
2021/12/22 06:57:19;;;;;;;23.75;13.30;;;;;;;;;;5077812;28;20048;-42
2021/12/22 06:59:45;;;;;;;26.48;14.23;;;;;;;;;;5063011;28;20056;-40
2021/12/22 07:02:12;;;;;;;23.75;13.93;;;;;;;;;;5074132;28;20408;-41
2021/12/22 07:04:40;;;;;;;23.52;13.90;;;;;;;;;;5064561;28;20044;-39
2021/12/22 07:07:06;;;;;;;23.80;13.02;;;;;;;;;;5072593;28;20097;-40
2021/12/22 07:09:32;;;;;;;31.75;14.85;;;;;;;;;;5081509;28;24542;-40
2021/12/22 07:12:00;;;;;;;27.88;14.07;;;;;;;;;;5082900;28;20040;-40
2021/12/22 07:14:26;;;;;;;24.23;14.25;;;;;;;;;;5070725;28;20224;-40
2021/12/22 07:16:52;;;;;;;30.80;15.20;;;;;;;;;;5082046;28;20156;-41
2021/12/22 07:19:20;;;;;;;25.42;14.50;;;;;;;;;;5074876;28;20045;-42
2021/12/22 07:21:48;;;;;;;31.33;14.98;;;;;;;;;;5074396;28;20068;-40
2021/12/22 07:24:14;;;;;;;28.55;14.40;;;;;;;;;;5073089;28;20040;-41
2021/12/22 07:26:41;;;;;;;26.13;13.70;;;;;;;;;;5081933;28;20036;-42
2021/12/22 07:29:07;;;;;;;23.27;14.35;;;;;;;;;;5082616;28;20036;-41
2021/12/22 07:31:33;;;;;;;25.90;13.85;;;;;;;;;;5082536;28;20051;-42
2021/12/22 07:34:33;;;;;;;24.60;13.07;;;-4.50;99.90;;;;;;5071730;28;20269;-40
2021/12/22 07:37:00;;;;;;;26.40;14.30;;;;;;;;;;4989949;28;20129;-41
2021/12/22 07:39:26;;;;;;;26.58;14.57;;;;;;;;;;4984007;28;20050;-40
2021/12/22 07:41:52;;;;;;;25.63;14.77;;;;;;;;;;4992019;28;20050;-40
2021/12/22 07:44:19;;;;;;;25.75;14.38;;;;;;;;;;4984282;28;20042;-40
2021/12/22 07:46:47;;;;;;;26.30;15.00;;;;;;;;;;4999374;28;20046;-40
2021/12/22 07:49:13;;;;;;;24.45;13.05;;;;;;;;;;4987547;28;20905;-41
2021/12/22 07:51:39;;;;;;;26.45;15.07;;;;;;;;;;5000436;28;20065;-41
2021/12/22 07:54:05;;;;;;;28.05;13.93;;;;;;;;;;4982761;28;20046;-41
2021/12/22 07:56:31;;;;;;;26.25;14.32;;;;;;;;;;4996634;28;20047;-41
2021/12/22 07:58:57;;;;;;;25.50;13.48;;;;;;;;;;4980927;28;20677;-41
2021/12/22 08:01:23;;;;;;;26.80;14.75;;;;;;;;;;4980192;28;20054;-41
2021/12/22 08:03:49;;;;;;;23.95;13.82;;;;;;;;;;4991748;28;20088;-42
2021/12/22 08:06:16;;;;;;;28.17;14.48;;;;;;;;;;4991336;28;21643;-42
2021/12/22 08:08:42;;;;;;;29.92;15.45;;;;;;;;;;4999959;28;20045;-41
2021/12/22 08:11:08;;;;;;;25.48;14.10;;;;;;;;;;4982317;28;20088;-40
2021/12/22 08:13:35;;;;;;;30.65;14.80;;;;;;;;;;5017944;28;20040;-43
2021/12/22 08:16:01;;;;;;;23.40;13.25;;;;;;;;;;5081552;28;20443;-43
2021/12/22 08:18:29;;;;;;;27.35;14.82;;;;;;;;;;5073254;28;20068;-40
2021/12/22 08:20:55;;;;;;;27.25;14.13;;;;;;;;;;5068988;28;20515;-41
2021/12/22 08:23:21;;;;;;;25.02;14.13;;;;;;;;;;5075112;28;20583;-41
2021/12/22 08:25:50;;;;;;;25.83;14.43;;;;;;;;;;5080989;28;20055;-41
2021/12/22 08:28:16;;;;;;;26.92;14.68;;;;;;;;;;5071802;28;20033;-42
2021/12/22 08:30:42;;;;;;;26.92;14.13;;;;;;;;;;5075873;28;20044;-41
2021/12/22 08:33:19;;;;;;;25.45;14.00;;;;;;;;;;5063396;28;20175;-42
2021/12/22 08:38:52;;;;;;;25.73;14.45;;;;;;;;;;5077756;28;20045;-40
2021/12/22 08:41:22;;;;;;;25.10;14.15;;;;;;;;;;5069200;28;20071;-40
2021/12/22 08:43:51;;;;;;;26.35;13.98;;;;;;;;;;5080101;28;20047;-40
2021/12/22 08:46:17;;;;;;;25.52;15.43;;;;;;;;;;5081582;28;20032;-40
2021/12/22 08:48:43;;;;;;;27.33;14.98;;;;;;;;;;5073037;28;20039;-43
2021/12/22 08:51:09;;;;;;;23.85;14.73;;;;;;;;;;5068741;28;20047;-42
2021/12/22 08:53:35;;;;;;;24.92;14.60;;;;;;;;;;5063439;28;20131;-40
2021/12/22 08:56:01;;;;;;;31.65;15.60;;;;;;;;;;5062747;28;20525;-40
2021/12/22 08:58:30;;;;;;;30.98;15.35;;;;;;;;;;5082184;28;20145;-40
2021/12/22 09:00:56;;;;;;;27.02;14.45;;;;;;;;;;5073793;28;20404;-42
2021/12/22 09:03:22;;;;;;;23.55;13.75;;;;;;;;;;5073529;28;20484;-41
2021/12/22 09:05:48;;;;;;;31.42;15.43;;;;;;;;;;5081243;28;20040;-40
2021/12/22 09:08:14;;;;;;;25.10;13.98;;;;;;;;;;5073150;28;20051;-40
2021/12/22 09:10:40;;;;;;;26.23;14.13;;;;;;;;;;5081362;28;20067;-42
2021/12/22 09:13:08;;;;;;;25.98;14.98;;;;;;;;;;5074777;28;20108;-40
2021/12/22 09:15:35;;;;;;;27.33;14.70;;;;;;;;;;5083437;28;20035;-42
2021/12/22 09:18:01;;;;;;;26.58;14.93;;;;;;;;;;5077228;28;20591;-40
2021/12/22 09:20:29;;;;;;;23.90;14.00;;;;;;;;;;5069392;28;20032;-40
2021/12/22 09:22:55;;;;;;;20.88;13.43;;;;;;;;;;5081928;28;20036;-41
2021/12/22 09:25:21;;;;;;;24.65;13.52;;;;;;;;;;5072777;28;20045;-41
2021/12/22 09:27:50;;;;;;;24.70;13.95;;;;;;;;;;5077196;28;20082;-40
2021/12/22 09:30:16;;;;;;;26.20;14.68;;;;;;;;;;5065935;28;20043;-43
2021/12/22 09:32:42;;;;;;;26.58;14.07;;;;;;;;;;5080264;28;20040;-40
2021/12/22 09:35:08;;;;;;;29.17;14.60;;;;;;;;;;5064708;28;20120;-40
2021/12/22 09:37:34;;;;;;;25.40;14.80;;;;;;;;;;5074317;28;20036;-40
2021/12/22 09:40:01;;;;;;;25.67;13.98;;;;;;;;;;5075341;28;20040;-41
2021/12/22 09:42:27;;;;;;;25.30;14.70;;;;;;;;;;5078003;28;20492;-41
2021/12/22 09:44:54;;;;;;;27.27;13.15;;;;;;;;;;5063308;28;20059;-42
2021/12/22 09:47:28;;;;;;;23.05;13.48;;;;;;;;;;5063425;28;20075;-40
2021/12/22 09:50:09;;;;;;;24.75;13.63;;;;;;;;;;5067894;28;20534;-41
2021/12/22 09:52:36;;;;;;;25.00;13.98;;;;;;;;;;5081051;28;20044;-41
2021/12/22 09:55:02;;;;;;;23.13;13.52;;;;;;;;;;5077089;28;20501;-41
2021/12/22 09:57:29;;;;;;;29.67;14.18;;;;;;;;;;5070530;28;20044;-42
2021/12/22 09:59:56;;;;;;;26.30;13.70;;;;;;;;;;5065852;28;20040;-43
2021/12/22 10:02:25;;;;;;;22.52;13.35;;;;;;;;;;5070480;28;20063;-40
2021/12/22 10:04:52;;;;;;;28.52;13.18;;;;;;;;;;5073363;28;20516;-41
2021/12/22 10:07:25;;;;;;;27.33;13.68;;;;;;;;;;5073995;28;20442;-43
2021/12/22 10:09:52;;;;;;;23.30;13.55;;;;;;;;;;5064875;28;20066;-41
2021/12/22 10:12:20;;;;;;;24.65;14.38;;;;;;;;;;5078480;28;20036;-45
2021/12/22 10:14:54;;;;;;;22.77;13.38;;;;;;;;;;5071390;28;20044;-40
2021/12/22 10:17:34;;;;;;;24.08;13.68;;;;;;;;;;5079851;28;20047;-41
2021/12/22 10:20:01;;;;;;;26.13;13.93;;;;;;;;;;5081163;28;20040;-40
2021/12/22 10:22:35;;;;;;;23.52;13.00;;;;;;;;;;5076945;28;20093;-43
2021/12/22 10:25:03;;;;;;;25.92;13.68;;;;;;;;;;5063628;28;20052;-40
2021/12/22 10:27:29;;;;;;;26.08;14.02;;;;;;;;;;5084770;28;20131;-40
2021/12/22 10:29:56;;;;;;;24.25;14.85;;;;;;;;;;5067228;28;20045;-42
2021/12/22 10:32:24;;;;;;;23.15;13.35;;;;;;;;;;5081524;28;20496;-42
2021/12/22 10:34:58;;;;;;;28.85;13.43;;;;;;;;;;5083042;28;20035;-41
2021/12/22 10:37:37;;;;;;;27.50;13.23;;;;;;;;;;5074286;28;20528;-42
2021/12/22 10:40:24;;;;;;;26.65;14.70;;;;;;;;;;5080737;28;20098;-41
2021/12/22 10:42:52;;;;;;;24.73;13.63;;;;;;;;;;5070711;28;20408;-42
2021/12/22 10:45:18;;;;;;;23.02;13.73;;;;;;;;;;5073190;28;20146;-41
2021/12/22 10:50:37;;;;;;;22.90;12.93;;;;;;;;;;5073356;28;20075;-40
2021/12/22 10:53:04;;;;;;;29.02;14.45;;;;;;;;;;5083646;28;20043;-40
2021/12/22 10:55:38;;;;;;;22.13;13.10;;;;;;;;;;5082860;28;20036;-41
2021/12/22 10:58:14;;;;;;;26.90;13.93;;;;;;;;;;5084083;28;20127;-41
2021/12/22 11:00:40;;;;;;;24.42;14.13;;;;;;;;;;5076540;28;20055;-40
2021/12/22 11:03:08;;;;;;;21.10;13.00;;;;;;;;;;5076821;28;20063;-39
2021/12/22 11:05:47;;;;;;;25.30;13.98;;;;;;;;;;5084501;28;20089;-40
2021/12/22 11:08:23;;;;;;;25.27;13.60;;;;;;;;;;5071553;28;20330;-41
2021/12/22 11:10:52;;;;;;;25.05;12.98;;;;;;;;;;5068104;28;20949;-41
2021/12/22 11:13:23;;;;;;;22.98;14.02;;;;;;;;;;5082230;28;20248;-40
2021/12/22 11:15:50;;;;;;;23.35;13.93;;;;;;;;;;5080414;28;20155;-41
2021/12/22 11:18:25;;;;;;;22.65;13.43;;;;;;;;;;5082908;28;20075;-40
2021/12/22 11:21:10;;;;;;;25.83;14.38;;;;;;;;;;5080577;28;20041;-40
2021/12/22 11:23:36;;;;;;;20.83;12.40;;;;;;;;;;5065814;28;20068;-41
2021/12/22 11:26:03;;;;;;;23.20;12.80;;;;;;;;;;5067989;28;20115;-40
2021/12/22 11:28:30;;;;;;;20.70;12.77;;;;;;;;;;5083002;28;20123;-41
2021/12/22 11:30:57;;;;;;;23.17;13.63;;;;;;;;;;5069498;28;20044;-40
2021/12/22 11:33:24;;;;;;;23.75;14.18;;;;;;;;;;5075805;28;20060;-41
2021/12/22 11:35:50;;;;;;;25.33;13.95;;;;;;;;;;5071449;28;20535;-41
2021/12/22 11:38:17;;;;;;;21.58;12.52;;;;;;;;;;5077753;28;20123;-40
2021/12/22 11:40:53;;;;;;;23.65;12.05;;;;;;;;;;5072395;28;20028;-39
2021/12/22 11:43:19;;;;;;;22.38;12.73;;;;;;;;;;5073047;28;20036;-39
2021/12/22 11:45:46;;;;;;;20.77;12.80;;;;;;;;;;5079847;28;20074;-40
2021/12/22 11:48:12;;;;;;;22.92;12.98;;;;;;;;;;5076386;28;20066;-40
2021/12/22 11:50:44;;;;;;;22.00;13.02;;;;;;;;;;5078333;28;20036;-40
2021/12/22 11:53:12;;;;;;;22.65;11.88;;;;;;;;;;5062806;28;20051;-40
2021/12/22 11:55:41;;;;;;;23.48;12.45;;;;;;;;;;5065202;28;20397;-42
2021/12/22 11:58:13;;;;;;;20.80;12.80;;;;;;;;;;5078131;28;20123;-40
2021/12/22 12:00:41;;;;;;;24.23;13.32;;;;;;;;;;5076101;28;20063;-41
2021/12/22 12:03:27;;;;;;;25.80;15.23;;;;;;;;;;5081852;28;20126;-40
2021/12/22 12:06:16;;;;;;;21.80;12.63;;;;;;;;;;5081603;28;20050;-40
2021/12/22 12:08:47;;;;;;;26.35;14.18;;;;;;;;;;4986984;28;20061;-40
2021/12/22 12:11:16;;;;;;;25.10;13.63;;;;;;;;;;4984825;28;20054;-40
2021/12/22 12:22:11;;;;;;;21.17;12.48;;;;;;;;;;4994238;28;20068;-41
2021/12/22 12:24:39;;;;;;;;;;;;;;;;;;4991962;28;20046;-40
2021/12/22 12:27:24;;;;;;;19.25;11.88;;;;;;;;;;4989528;28;19926;-40
2021/12/22 12:30:02;;;;;;;23.27;13.98;;;;;;;;;;4997801;28;20034;-40
2021/12/22 12:32:40;;;;;;;20.50;12.40;;;;;;;;;;4966476;28;20046;-41
2021/12/22 12:35:22;;;;;;;22.17;12.45;;;;;;;;;;4995576;28;20516;-41
2021/12/22 12:38:08;;;;;;;25.48;12.93;;;;;;;;;;4981604;28;20120;-41
2021/12/22 12:40:53;;;;;;;20.15;12.43;;;;;;;;;;4999289;28;20045;-40
2021/12/22 12:43:19;;;;;;;21.90;13.23;;;;;;;;;;4998646;28;20819;-40
2021/12/22 12:45:47;;;;;;;22.20;13.02;;;;;;;;;;5025912;28;20060;-41
2021/12/22 12:48:25;;;;;;;21.83;12.85;;;;;;;;;;5075033;28;20090;-42
2021/12/22 12:51:09;;;;;;;22.52;12.70;;;;;;;;;;5074397;28;20052;-40
2021/12/22 12:53:40;;;;;;;19.20;12.02;;;;;;;;;;5080900;28;20031;-40
2021/12/22 12:56:09;;;;;;;20.70;12.65;;;;;;;;;;5062358;28;20060;-41
2021/12/22 12:58:35;;;;;;;21.77;13.00;;;;;;;;;;5074368;28;20156;-41
2021/12/22 13:01:03;;;;;;;20.13;12.30;;;;;;;;;;5079690;28;20138;-42
2021/12/22 13:03:46;;;;;;;27.48;13.57;;;;;;;;;;5068045;28;20040;-40
2021/12/22 13:06:12;;;;;;;20.83;12.75;;;;;;;;;;5080429;28;20039;-41
2021/12/22 13:08:38;;;;;;;20.52;12.20;;;;;;;;;;5065140;28;20170;-41
2021/12/22 13:11:11;;;;;;;20.42;12.00;;;;;;;;;;5061200;28;20036;-40
2021/12/22 13:15:45;;;;;;;23.63;11.95;;;;;;;;;;5075142;28;20036;-40
2021/12/22 13:16:24;;;;;;;21.33;12.57;;;;;;;;;;5080242;28;20048;-40
2021/12/22 13:18:50;;;;;;;22.48;13.30;;;;;;;;;;5070189;28;20451;-42
2021/12/22 13:21:16;;;;;;;21.52;13.15;;;;;;;;;;5062657;28;20041;-40
2021/12/22 13:23:42;;;;;;;21.75;13.07;;;;;;;;;;5077731;28;20032;-40
2021/12/22 13:26:13;;;;;;;25.95;12.38;;;;;;;;;;5076864;28;20516;-40
2021/12/22 13:28:39;;;;;;;19.50;12.88;;;;;;;;;;5076826;28;20040;-40
2021/12/22 13:31:07;;;;;;;23.48;13.65;;;;;;;;;;5078075;28;20037;-40
2021/12/22 13:33:35;;;;;;;29.42;13.95;;;;;;;;;;5061467;28;20989;-40
2021/12/22 13:36:05;;;;;;;20.13;11.18;;;;;;;;;;5070142;28;20039;-40
2021/12/22 13:38:33;;;;;;;21.90;12.20;;;;;;;;;;5077254;28;20400;-40
2021/12/22 13:41:08;;;;;;;19.10;12.35;;;;;;;;;;5082250;28;20114;-41
2021/12/22 13:43:38;;;;;;;18.38;12.02;;;;;;;;;;5080080;28;20123;-40
2021/12/22 13:46:18;;;;;;;19.88;11.77;;;;;;;;;;5081290;28;20448;-40
2021/12/22 13:48:48;;;;;;;21.45;11.52;;;;;;;;;;5065012;28;20059;-40
2021/12/22 13:51:15;;;;;;;22.35;12.25;;;;;;;;;;5060663;28;20049;-40
2021/12/22 13:53:43;;;;;;;17.85;11.57;;;;;;;;;;5060371;28;20037;-44
2021/12/22 13:56:12;;;;;;;22.08;12.18;;;;;;;;;;5078937;28;20047;-42
2021/12/22 13:58:44;;;;;;;19.38;12.85;;;;;;;;;;5082560;28;20044;-41
2021/12/22 14:01:13;;;;;;;20.93;13.37;;;;;;;;;;5071275;28;20139;-40
2021/12/22 14:03:39;;;;;;;17.98;12.15;;;;;;;;;;5078272;28;20044;-40
2021/12/22 14:06:06;;;;;;;20.98;12.88;;;;;;;;;;5072239;28;20036;-43
2021/12/22 14:08:33;;;;;;;21.67;12.98;;;;;;;;;;5067462;28;20446;-40
2021/12/22 14:10:59;;;;;;;22.40;12.98;;;;;;;;;;5079257;28;20826;-40
2021/12/22 14:13:28;;;;;;;20.05;13.48;;;;;;;;;;5069352;28;20040;-41
2021/12/22 14:15:54;;;;;;;20.67;11.75;;;;;;;;;;5063195;28;20094;-41
2021/12/22 14:18:34;;;;;;;19.45;11.27;;;;;;;;;;5070816;28;20570;-41
2021/12/22 14:21:00;;;;;;;20.80;13.25;;;;;;;;;;5083830;28;20048;-40
2021/12/22 14:23:26;;;;;;;20.48;11.68;;;;;;;;;;5084997;28;20038;-41
2021/12/22 14:26:04;;;;;;;22.52;12.68;;;;;;;;;;5066282;28;20570;-40
2021/12/22 14:28:30;;;;;;;24.25;12.95;;;;;;;;;;5083170;28;20638;-40
2021/12/22 14:31:05;;;;;;;19.15;11.80;;;;;;;;;;5084205;28;20032;-40
2021/12/22 14:33:31;;;;;;;17.73;11.63;;;;;;;;;;5082740;28;20040;-40
2021/12/22 14:36:03;;;;;;;22.63;12.18;;;;;;;;;;5074665;28;20396;-40
2021/12/22 14:38:32;;;;;;;20.70;12.13;;;;;;;;;;5069167;28;20801;-40
2021/12/22 14:41:00;;;;;;;20.63;12.10;;;;;;;;;;5077491;28;20115;-41
2021/12/22 14:43:43;;;;;;;18.35;11.57;;;;;;;;;;5070101;28;20055;-40
2021/12/22 14:46:11;;;;;;;19.60;11.40;;;;;;;;;;5072912;28;20036;-40